createdAt,value
2017-10-23T00:00:21.696Z,98539.08
2017-10-23T00:02:48.130Z,98532.22
2017-10-23T00:05:15.377Z,98528.16
2017-10-23T00:07:41.811Z,98528.06
2017-10-23T00:10:08.245Z,98525.67
2017-10-23T00:12:34.690Z,98525.53
2017-10-23T00:15:01.087Z,98524.18
2017-10-23T00:17:27.550Z,98521.13
2017-10-23T00:19:53.985Z,98516.08
2017-10-23T00:22:21.226Z,98510.34
2017-10-23T00:24:47.674Z,98514.36
2017-10-23T00:27:14.108Z,98510.61
2017-10-23T00:29:40.543Z,98504.34
2017-10-23T00:32:06.974Z,98495.36
2017-10-23T00:34:33.413Z,98488.18
2017-10-23T00:36:59.849Z,98487.54
2017-10-23T00:39:27.109Z,98484.66
2017-10-23T00:41:53.536Z,98491.34
2017-10-23T00:44:19.971Z,98486.38
2017-10-23T00:46:46.414Z,98479.45
2017-10-23T00:49:12.842Z,98479.85
2017-10-23T00:51:39.276Z,98480.59
2017-10-23T00:54:05.821Z,98477.25
2017-10-23T00:56:32.862Z,98469.71
2017-10-23T00:58:59.306Z,98467.41
2017-10-23T01:01:25.631Z,98467.50
2017-10-23T01:03:52.166Z,98466.73
2017-10-23T01:06:18.604Z,98453.56
2017-10-23T01:08:44.979Z,98453.34
2017-10-23T01:11:11.483Z,98446.92
2017-10-23T01:13:38.622Z,98451.52
2017-10-23T01:16:04.991Z,98445.99
2017-10-23T01:18:31.390Z,98447.47
2017-10-23T01:20:57.830Z,98445.89
2017-10-23T01:23:24.270Z,98451.67
2017-10-23T01:25:50.695Z,98451.03
2017-10-23T01:28:17.141Z,98450.62
2017-10-23T01:30:44.386Z,98442.98
2017-10-23T01:33:10.820Z,98440.42
2017-10-23T01:35:37.255Z,98443.63
2017-10-23T01:38:03.696Z,98451.67
2017-10-23T01:40:30.123Z,98440.59
2017-10-23T01:42:56.561Z,98438.78
2017-10-23T01:45:22.967Z,98429.48
2017-10-23T01:47:50.112Z,98430.92
2017-10-23T01:50:16.586Z,98428.52
2017-10-23T01:52:42.951Z,98419.41
2017-10-23T01:55:09.455Z,98414.20
2017-10-23T01:57:35.885Z,98410.27
2017-10-23T02:00:02.421Z,98414.10
2017-10-23T02:02:28.859Z,98408.94
2017-10-23T02:04:56.085Z,98404.09
2017-10-23T02:07:22.549Z,98404.17
2017-10-23T02:09:48.956Z,98394.41
2017-10-23T02:12:15.383Z,98388.41
2017-10-23T02:14:41.837Z,98396.02
2017-10-23T02:17:08.292Z,98384.77
2017-10-23T02:19:34.724Z,98378.67
2017-10-23T02:22:01.972Z,98374.53
2017-10-23T02:24:28.408Z,98373.17
2017-10-23T02:26:54.842Z,98368.76
2017-10-23T02:29:21.276Z,98373.88
2017-10-23T02:31:47.720Z,98362.63
2017-10-23T02:34:14.148Z,98359.15
2017-10-23T02:36:40.581Z,98352.84
2017-10-23T02:39:07.835Z,98355.77
2017-10-23T02:41:34.349Z,98348.88
2017-10-23T02:44:00.809Z,98346.80
2017-10-23T02:46:27.243Z,98342.27
2017-10-23T02:48:53.680Z,98337.11
2017-10-23T02:51:20.112Z,98332.59
2017-10-23T02:53:46.555Z,98326.38
2017-10-23T02:56:13.706Z,98319.67
2017-10-23T02:58:40.142Z,98314.78
2017-10-23T03:01:06.686Z,98310.37
2017-10-23T03:03:33.105Z,98302.28
2017-10-23T03:05:59.547Z,98299.97
2017-10-23T03:08:25.974Z,98296.76
2017-10-23T03:10:52.417Z,98296.58
2017-10-23T03:13:19.656Z,98288.95
2017-10-23T03:15:46.099Z,98288.55
2017-10-23T03:18:12.532Z,98291.04
2017-10-23T03:20:38.970Z,98278.70
2017-10-23T03:23:05.413Z,98286.84
2017-10-23T03:25:31.846Z,98283.17
2017-10-23T03:27:58.280Z,98280.87
2017-10-23T03:30:25.425Z,98269.20
2017-10-23T03:32:51.867Z,98272.73
2017-10-23T03:35:18.293Z,98275.89
2017-10-23T03:37:44.728Z,98282.18
2017-10-23T03:40:11.164Z,98286.55
2017-10-23T03:42:37.607Z,98285.41
2017-10-23T03:45:04.042Z,98280.17
2017-10-23T03:47:31.287Z,98281.02
2017-10-23T03:49:57.619Z,98280.19
2017-10-23T03:52:24.160Z,98269.27
2017-10-23T03:54:50.591Z,98266.23
2017-10-23T03:57:16.963Z,98262.54
2017-10-23T03:59:43.358Z,98254.13
2017-10-23T04:02:09.793Z,98256.20
2017-10-23T04:04:37.048Z,98248.36
2017-10-23T04:07:03.483Z,98244.30
2017-10-23T04:09:29.918Z,98230.78
2017-10-23T04:11:56.353Z,98222.98
2017-10-23T04:14:22.821Z,98226.67
2017-10-23T04:16:49.221Z,98214.98
2017-10-23T04:19:15.656Z,98212.94
2017-10-23T04:21:42.807Z,98213.89
2017-10-23T04:24:09.255Z,98202.02
2017-10-23T04:26:35.602Z,98206.20
2017-10-23T04:29:02.010Z,98205.94
2017-10-23T04:31:28.444Z,98199.38
2017-10-23T04:33:54.879Z,98204.80
2017-10-23T04:36:21.329Z,98192.38
2017-10-23T04:38:48.570Z,98204.00
2017-10-23T04:41:14.976Z,98191.69
2017-10-23T04:43:41.437Z,98201.17
2017-10-23T04:46:07.981Z,98191.69
2017-10-23T04:48:34.463Z,98181.28
2017-10-23T04:51:01.101Z,98188.94
2017-10-23T04:53:27.572Z,98185.53
2017-10-23T04:55:54.747Z,98192.09
2017-10-23T04:58:21.275Z,98191.25
2017-10-23T05:00:47.878Z,98186.16
2017-10-23T05:03:14.439Z,98186.12
2017-10-23T05:05:40.990Z,98181.31
2017-10-23T05:08:07.536Z,98176.96
2017-10-23T05:10:34.064Z,98180.00
2017-10-23T05:13:01.085Z,98176.38
2017-10-23T05:15:27.526Z,98173.84
2017-10-23T05:17:53.991Z,98176.63
2017-10-23T05:20:20.419Z,98178.98
2017-10-23T05:22:46.863Z,98178.83
2017-10-23T05:25:13.287Z,98174.77
2017-10-23T05:27:39.622Z,98170.11
2017-10-23T05:30:06.858Z,98167.43
2017-10-23T05:32:33.310Z,98156.84
2017-10-23T05:34:59.752Z,98153.84
2017-10-23T05:37:26.589Z,98159.05
2017-10-23T05:39:53.024Z,98156.56
2017-10-23T05:42:20.071Z,98153.92
2017-10-23T05:44:46.515Z,98147.58
2017-10-23T05:47:13.413Z,98151.67
2017-10-23T05:49:39.889Z,98147.23
2017-10-23T05:52:06.266Z,98140.59
2017-10-23T05:54:32.732Z,98143.16
2017-10-23T05:56:59.193Z,98145.83
2017-10-23T05:59:25.834Z,98142.03
2017-10-23T06:01:52.269Z,98147.68
2017-10-23T06:04:19.112Z,98134.72
2017-10-23T06:06:45.751Z,98141.29
2017-10-23T06:09:12.198Z,98136.41
2017-10-23T06:11:38.621Z,98143.97
2017-10-23T06:14:05.057Z,98133.73
2017-10-23T06:16:31.905Z,98136.13
2017-10-23T06:18:58.338Z,98132.49
2017-10-23T06:21:24.772Z,98142.27
2017-10-23T06:23:51.213Z,98139.27
2017-10-23T06:26:18.167Z,98144.91
2017-10-23T06:28:44.801Z,98133.35
2017-10-23T06:31:11.242Z,98133.20
2017-10-23T06:33:38.081Z,98118.89
2017-10-23T06:36:04.713Z,98130.67
2017-10-23T06:38:31.157Z,98133.98
2017-10-23T06:40:58.101Z,98129.28
2017-10-23T06:43:24.660Z,98124.72
2017-10-23T06:45:51.175Z,98130.02
2017-10-23T06:48:17.912Z,98125.43
2017-10-23T06:50:44.352Z,98110.78
2017-10-23T06:53:10.919Z,98108.31
2017-10-23T06:55:37.425Z,98107.73
2017-10-23T06:58:03.839Z,98105.99
2017-10-23T07:00:30.595Z,98111.22
2017-10-23T07:02:57.131Z,98105.34
2017-10-23T07:05:24.191Z,98107.41
2017-10-23T07:07:50.615Z,98095.73
2017-10-23T07:10:17.256Z,98093.38
2017-10-23T07:12:43.793Z,98083.98
2017-10-23T07:15:10.227Z,98081.52
2017-10-23T07:17:37.380Z,98083.39
2017-10-23T07:20:04.223Z,98076.16
2017-10-23T07:22:30.667Z,98079.97
2017-10-23T07:24:57.101Z,98068.22
2017-10-23T07:27:23.528Z,98072.50
2017-10-23T07:29:50.168Z,98066.67
2017-10-23T07:32:16.705Z,98066.39
2017-10-23T07:34:43.139Z,98051.80
2017-10-23T07:37:09.612Z,98052.94
2017-10-23T07:39:36.318Z,98060.05
2017-10-23T07:42:02.864Z,98056.97
2017-10-23T07:44:29.288Z,98050.77
2017-10-23T07:46:56.341Z,98048.91
2017-10-23T07:49:23.414Z,98052.36
2017-10-23T07:51:49.933Z,98048.25
2017-10-23T07:54:16.362Z,98038.72
2017-10-23T07:56:43.093Z,98040.44
2017-10-23T07:59:09.547Z,98031.87
2017-10-23T08:01:36.901Z,98027.66
2017-10-23T08:04:03.430Z,98031.23
2017-10-23T08:06:29.866Z,98023.95
2017-10-23T08:08:56.709Z,98019.50
2017-10-23T08:11:23.146Z,98007.02
2017-10-23T08:13:49.578Z,98012.88
2017-10-23T08:16:16.122Z,98001.95
2017-10-23T08:18:42.550Z,98009.19
2017-10-23T08:21:09.160Z,98010.70
2017-10-23T08:23:35.495Z,98004.72
2017-10-23T08:26:01.967Z,98005.05
2017-10-23T08:28:28.391Z,98002.01
2017-10-23T08:30:54.891Z,98000.52
2017-10-23T08:33:21.363Z,98004.05
2017-10-23T08:35:47.808Z,97999.05
2017-10-23T08:38:14.337Z,97998.15
2017-10-23T08:40:40.779Z,97998.28
2017-10-23T08:43:07.309Z,97992.53
2017-10-23T08:45:33.993Z,97997.88
2017-10-23T08:48:00.386Z,97996.05
2017-10-23T08:50:27.227Z,97975.37
2017-10-23T08:52:53.875Z,97993.67
2017-10-23T08:55:20.301Z,97992.70
2017-10-23T08:57:46.743Z,97990.30
2017-10-23T09:00:13.179Z,97987.98
2017-10-23T09:02:39.780Z,97983.20
2017-10-23T09:05:06.357Z,97986.00
2017-10-23T09:07:32.792Z,97987.01
2017-10-23T09:09:59.218Z,97993.03
2017-10-23T09:12:25.764Z,97986.33
2017-10-23T09:14:52.295Z,97993.91
2017-10-23T09:17:18.963Z,97988.53
2017-10-23T09:19:45.375Z,97986.48
2017-10-23T09:22:11.903Z,97988.51
2017-10-23T09:24:41.411Z,97987.92
2017-10-23T09:27:07.949Z,97992.81
2017-10-23T09:29:34.382Z,97985.64
2017-10-23T09:32:01.332Z,97981.64
2017-10-23T09:34:27.763Z,97988.13
2017-10-23T09:36:54.198Z,97984.48
2017-10-23T09:39:20.644Z,97982.71
2017-10-23T09:41:47.078Z,97978.70
2017-10-23T09:44:13.504Z,97975.41
2017-10-23T09:46:39.928Z,97973.77
2017-10-23T09:49:06.375Z,97973.80
2017-10-23T09:51:32.808Z,97973.64
2017-10-23T09:53:59.346Z,97972.52
2017-10-23T09:56:25.883Z,97966.13
2017-10-23T09:58:52.326Z,97962.00
2017-10-23T10:01:18.752Z,97959.94
2017-10-23T10:03:45.401Z,97965.88
2017-10-23T10:06:11.978Z,97963.31
2017-10-23T10:08:39.262Z,97964.02
2017-10-23T10:11:05.729Z,97958.66
2017-10-23T10:13:32.371Z,97962.59
2017-10-23T10:15:58.794Z,97964.43
2017-10-23T10:18:25.240Z,97962.37
2017-10-23T10:20:51.666Z,97958.46
2017-10-23T10:23:18.210Z,97959.55
2017-10-23T10:25:44.842Z,97965.05
2017-10-23T10:28:11.295Z,97957.75
2017-10-23T10:30:37.657Z,97966.73
2017-10-23T10:33:04.145Z,97960.20
2017-10-23T10:35:30.579Z,97953.41
2017-10-23T10:37:56.955Z,97953.84
2017-10-23T10:40:23.550Z,97944.78
2017-10-23T10:42:50.311Z,97942.98
2017-10-23T10:45:16.703Z,97944.19
2017-10-23T10:47:43.146Z,97942.07
2017-10-23T10:50:09.709Z,97942.84
2017-10-23T10:52:36.730Z,97939.08
2017-10-23T10:55:03.174Z,97937.09
2017-10-23T10:57:29.733Z,97931.28
2017-10-23T10:59:56.259Z,97933.52
2017-10-23T11:02:22.804Z,97926.51
2017-10-23T11:04:49.231Z,97928.95
2017-10-23T11:07:15.564Z,97925.73
2017-10-23T11:09:42.012Z,97919.80
2017-10-23T11:12:08.535Z,97919.00
2017-10-23T11:14:34.932Z,97925.11
2017-10-23T11:17:01.813Z,97919.05
2017-10-23T11:19:28.250Z,97921.05
2017-10-23T11:21:54.837Z,97911.03
2017-10-23T11:24:21.315Z,97909.07
2017-10-23T11:26:47.875Z,97905.47
2017-10-23T11:29:14.305Z,97910.14
2017-10-23T11:31:41.149Z,97911.08
2017-10-23T11:34:07.580Z,97891.59
2017-10-23T11:36:33.989Z,97888.88
2017-10-23T11:39:01.102Z,97883.76
2017-10-23T11:41:27.771Z,97884.45
2017-10-23T11:43:54.539Z,97874.94
2017-10-23T11:46:21.491Z,97881.83
2017-10-23T11:48:47.914Z,97881.25
2017-10-23T11:51:14.565Z,97882.70
2017-10-23T11:53:41.310Z,97874.67
2017-10-23T11:56:08.288Z,97883.38
2017-10-23T11:58:34.915Z,97885.57
2017-10-23T12:01:01.431Z,97880.31
2017-10-23T12:03:27.946Z,97885.17
2017-10-23T12:05:54.313Z,97879.78
2017-10-23T12:08:20.735Z,97866.69
2017-10-23T12:10:47.277Z,97874.97
2017-10-23T12:13:13.606Z,97870.27
2017-10-23T12:15:40.169Z,97869.63
2017-10-23T12:18:07.315Z,97879.61
2017-10-23T12:20:33.670Z,97876.92
2017-10-23T12:23:00.779Z,97879.69
2017-10-23T12:25:27.507Z,97870.47
2017-10-23T12:27:53.997Z,97869.91
2017-10-23T12:30:20.774Z,97868.22
2017-10-23T12:32:47.839Z,97873.91
2017-10-23T12:35:14.431Z,97867.17
2017-10-23T12:37:41.151Z,97856.34
2017-10-23T12:40:08.279Z,97855.69
2017-10-23T12:42:34.825Z,97863.14
2017-10-23T12:45:01.325Z,97851.77
2017-10-23T12:47:28.442Z,97852.36
2017-10-23T12:49:55.351Z,97853.52
2017-10-23T12:52:21.875Z,97846.56
2017-10-23T12:54:48.326Z,97837.22
2017-10-23T12:57:14.695Z,97839.53
2017-10-23T12:59:41.089Z,97851.95
2017-10-23T13:02:07.737Z,97851.52
2017-10-23T13:04:35.626Z,97852.23
2017-10-23T13:07:02.346Z,97848.91
2017-10-23T13:09:28.817Z,97854.50
2017-10-23T13:11:55.524Z,97855.02
2017-10-23T13:14:22.309Z,97863.43
2017-10-23T13:16:49.510Z,97857.61
2017-10-23T13:19:15.976Z,97856.41
2017-10-23T13:21:42.382Z,97862.61
2017-10-23T13:24:08.817Z,97865.49
2017-10-23T13:26:35.259Z,97856.98
2017-10-23T13:29:01.583Z,97853.11
2017-10-23T13:31:28.128Z,97858.19
2017-10-23T13:33:54.667Z,97862.93
2017-10-23T13:36:21.093Z,97867.81
2017-10-23T13:38:47.530Z,97870.25
2017-10-23T13:41:14.280Z,97863.78
2017-10-23T13:43:41.044Z,97867.91
2017-10-23T13:46:07.558Z,97870.12
2017-10-23T13:48:33.993Z,97873.14
2017-10-23T13:51:00.418Z,97868.14
2017-10-23T13:53:27.426Z,97863.34
2017-10-23T13:55:53.799Z,97863.34
2017-10-23T13:58:20.235Z,97848.45
2017-10-23T14:00:46.918Z,97845.67
2017-10-23T14:03:13.412Z,97842.70
2017-10-23T14:05:39.855Z,97855.04
2017-10-23T14:08:06.281Z,97852.05
2017-10-23T14:10:32.787Z,97864.06
2017-10-23T14:12:59.560Z,97863.55
2017-10-23T14:15:25.997Z,97864.14
2017-10-23T14:17:52.541Z,97870.92
2017-10-23T14:20:19.076Z,97864.14
2017-10-23T14:22:45.612Z,97857.12
2017-10-23T14:25:12.042Z,97848.87
2017-10-23T14:27:38.478Z,97852.63
2017-10-23T14:30:04.853Z,97838.86
2017-10-23T14:32:31.450Z,97825.47
2017-10-23T14:37:24.313Z,97806.13
2017-10-23T14:39:51.265Z,97815.73
2017-10-23T14:42:17.816Z,97807.59
2017-10-23T14:44:44.341Z,97814.06
2017-10-23T14:47:11.286Z,97821.03
2017-10-23T14:49:38.437Z,97817.36
2017-10-23T14:52:04.911Z,97814.91
2017-10-23T14:54:31.418Z,97813.02
2017-10-23T14:56:58.356Z,97814.48
2017-10-23T14:59:24.791Z,97803.20
2017-10-23T15:01:51.337Z,97801.17
2017-10-23T15:04:18.490Z,97795.94
2017-10-23T15:06:44.858Z,97789.23
2017-10-23T15:09:11.768Z,97788.14
2017-10-23T15:11:38.297Z,97777.31
2017-10-23T15:14:04.732Z,97773.48
2017-10-23T15:16:31.175Z,97788.16
2017-10-23T15:18:57.605Z,97788.78
2017-10-23T15:21:24.036Z,97786.81
2017-10-23T15:23:50.479Z,97784.20
2017-10-23T15:26:16.843Z,97786.12
2017-10-23T15:28:43.177Z,97781.09
2017-10-23T15:31:10.471Z,97788.56
2017-10-23T15:33:36.913Z,97789.71
2017-10-23T15:36:03.386Z,97792.74
2017-10-23T15:38:29.797Z,97797.77
2017-10-23T15:40:56.231Z,97798.06
2017-10-23T15:43:23.076Z,97793.28
2017-10-23T15:45:49.510Z,97786.41
2017-10-23T15:48:16.661Z,97786.67
2017-10-23T15:50:43.207Z,97783.67
2017-10-23T15:53:09.644Z,97784.73
2017-10-23T15:55:36.078Z,97788.13
2017-10-23T15:58:02.513Z,97784.75
2017-10-23T16:00:28.938Z,97791.39
2017-10-23T16:02:55.384Z,97784.21
2017-10-23T16:05:22.525Z,97787.11
2017-10-23T16:07:48.968Z,97773.68
2017-10-23T16:10:15.395Z,97780.41
2017-10-23T16:12:41.829Z,97785.26
2017-10-23T16:15:08.272Z,97785.72
2017-10-23T16:17:34.710Z,97780.55
2017-10-23T16:20:01.123Z,97791.65
2017-10-23T16:22:28.389Z,97791.43
2017-10-23T16:24:54.838Z,97784.56
2017-10-23T16:27:21.224Z,97775.48
2017-10-23T16:29:47.703Z,97782.20
2017-10-23T16:32:14.237Z,97781.65
2017-10-23T16:34:40.668Z,97791.88
2017-10-23T16:37:07.102Z,97796.30
2017-10-23T16:39:34.354Z,97795.81
2017-10-23T16:42:00.789Z,97796.42
2017-10-23T16:44:27.228Z,97800.86
2017-10-23T16:46:53.667Z,97794.24
2017-10-23T16:49:20.033Z,97794.18
2017-10-23T16:51:46.535Z,97798.03
2017-10-23T16:54:12.943Z,97799.51
2017-10-23T16:56:40.211Z,97794.86
2017-10-23T16:59:06.659Z,97794.12
2017-10-23T17:01:33.085Z,97790.02
2017-10-23T17:03:59.530Z,97794.05
2017-10-23T17:06:25.963Z,97790.57
2017-10-23T17:08:52.394Z,97796.38
2017-10-23T17:11:18.827Z,97795.19
2017-10-23T17:13:45.977Z,97795.63
2017-10-23T17:16:12.411Z,97798.02
2017-10-23T17:18:38.820Z,97794.19
2017-10-23T17:21:05.281Z,97794.30
2017-10-23T17:23:31.716Z,97787.88
2017-10-23T17:25:58.160Z,97788.80
2017-10-23T17:28:24.586Z,97787.91
2017-10-23T17:30:51.745Z,97786.97
2017-10-23T17:33:18.181Z,97777.98
2017-10-23T17:35:44.607Z,97775.45
2017-10-23T17:38:11.042Z,97780.15
2017-10-23T17:40:37.477Z,97788.22
2017-10-23T17:43:03.920Z,97784.38
2017-10-23T17:45:30.346Z,97797.30
2017-10-23T17:47:57.500Z,97794.70
2017-10-23T17:50:23.920Z,97795.17
2017-10-23T17:52:50.375Z,97790.31
2017-10-23T17:55:16.804Z,97786.06
2017-10-23T17:57:43.241Z,97787.72
2017-10-23T18:00:09.674Z,97789.62
2017-10-23T18:02:36.123Z,97787.30
2017-10-23T18:05:03.260Z,97796.39
2017-10-23T18:07:29.697Z,97789.23
2017-10-23T18:09:56.137Z,97789.97
2017-10-23T18:12:22.571Z,97794.97
2017-10-23T18:14:48.998Z,97785.00
2017-10-23T18:17:15.412Z,97787.27
2017-10-23T18:19:41.855Z,97801.44
2017-10-23T18:22:09.034Z,97797.67
2017-10-23T18:24:35.454Z,97800.92
2017-10-23T18:27:01.889Z,97796.09
2017-10-23T18:29:28.323Z,97802.90
2017-10-23T18:31:54.759Z,97798.41
2017-10-23T18:34:21.192Z,97786.93
2017-10-23T18:36:47.628Z,97791.82
2017-10-23T18:39:14.769Z,97783.86
2017-10-23T18:41:41.215Z,97789.55
2017-10-23T18:44:07.657Z,97790.80
2017-10-23T18:46:34.187Z,97794.34
2017-10-23T18:49:00.522Z,97793.11
2017-10-23T18:51:26.968Z,97803.48
2017-10-23T18:53:53.388Z,97809.11
2017-10-23T18:56:20.642Z,97818.78
2017-10-23T18:58:47.077Z,97816.27
2017-10-23T19:01:13.520Z,97803.77
2017-10-23T19:03:39.956Z,97794.67
2017-10-23T19:06:06.383Z,97792.95
2017-10-23T19:08:32.759Z,97788.02
2017-10-23T19:10:59.148Z,97801.52
2017-10-23T19:13:26.408Z,97803.98
2017-10-23T19:15:52.812Z,97801.72
2017-10-23T19:18:19.272Z,97798.73
2017-10-23T19:20:45.707Z,97793.22
2017-10-23T19:23:12.150Z,97794.60
2017-10-23T19:25:38.576Z,97789.73
2017-10-23T19:28:05.011Z,97789.56
2017-10-23T19:30:32.163Z,97788.22
2017-10-23T19:32:58.598Z,97798.18
2017-10-23T19:35:25.033Z,97793.10
2017-10-23T19:37:51.468Z,97793.10
2017-10-23T19:40:17.904Z,97796.31
2017-10-23T19:42:44.347Z,97791.31
2017-10-23T19:45:10.773Z,97796.17
2017-10-23T19:47:38.032Z,97795.77
2017-10-23T19:50:04.460Z,97809.44
2017-10-23T19:52:30.897Z,97802.05
2017-10-23T19:54:57.331Z,97788.94
2017-10-23T19:57:23.765Z,97784.26
2017-10-23T19:59:50.208Z,97785.28
2017-10-23T20:02:16.635Z,97793.18
2017-10-23T20:04:43.794Z,97810.34
2017-10-23T20:07:10.222Z,97802.45
2017-10-23T20:09:36.665Z,97803.81
2017-10-23T20:12:03.090Z,97802.34
2017-10-23T20:14:29.424Z,97801.73
2017-10-23T20:16:55.858Z,97790.87
2017-10-23T20:19:22.302Z,97781.88
2017-10-23T20:21:49.444Z,97767.08
2017-10-23T20:24:15.879Z,97772.89
2017-10-23T20:26:42.315Z,97770.30
2017-10-23T20:29:08.751Z,97783.59
2017-10-23T20:31:35.193Z,97773.33
2017-10-23T20:34:01.620Z,97761.56
2017-10-23T20:36:28.063Z,97758.42
2017-10-23T20:38:55.205Z,97759.30
2017-10-23T20:41:21.640Z,97756.59
2017-10-23T20:43:48.075Z,97750.30
2017-10-23T20:46:14.519Z,97752.60
2017-10-23T20:48:40.885Z,97751.55
2017-10-23T20:51:07.260Z,97752.03
2017-10-23T20:53:33.678Z,97738.41
2017-10-23T20:56:00.978Z,97758.02
2017-10-23T20:58:27.510Z,97756.66
2017-10-23T21:00:53.930Z,97752.42
2017-10-23T21:03:20.376Z,97755.23
2017-10-23T21:05:46.751Z,97759.97
2017-10-23T21:08:13.244Z,97764.98
2017-10-23T21:10:39.679Z,97768.53
2017-10-23T21:13:06.767Z,97777.45
2017-10-23T21:15:33.162Z,97774.64
2017-10-23T21:17:59.607Z,97769.78
2017-10-23T21:20:26.040Z,97764.81
2017-10-23T21:22:52.465Z,97771.42
2017-10-23T21:25:18.900Z,97767.26
2017-10-23T21:27:45.341Z,97776.61
2017-10-23T21:30:12.479Z,97764.88
2017-10-23T21:32:38.922Z,97767.98
2017-10-23T21:35:05.357Z,97767.19
2017-10-23T21:37:31.790Z,97765.90
2017-10-23T21:39:58.226Z,97764.04
2017-10-23T21:42:24.660Z,97764.48
2017-10-23T21:44:51.104Z,97774.35
2017-10-23T21:47:18.252Z,97772.67
2017-10-23T21:49:44.690Z,97770.13
2017-10-23T21:52:11.129Z,97773.05
2017-10-23T21:54:37.554Z,97767.23
2017-10-23T21:57:03.988Z,97768.41
2017-10-23T21:59:30.422Z,97760.63
2017-10-23T22:01:56.857Z,97759.31
2017-10-23T22:04:24.009Z,97755.77
2017-10-23T22:06:50.443Z,97747.44
2017-10-23T22:09:16.878Z,97739.95
2017-10-23T22:11:43.321Z,97740.75
2017-10-23T22:14:09.747Z,97744.19
2017-10-23T22:16:36.182Z,97732.91
2017-10-23T22:19:02.620Z,97735.86
2017-10-23T22:21:29.734Z,97736.96
2017-10-23T22:23:56.179Z,97749.70
2017-10-23T22:26:22.617Z,97747.65
2017-10-23T22:28:49.060Z,97749.00
2017-10-23T22:31:15.405Z,97739.13
2017-10-23T22:33:41.942Z,97733.06
2017-10-23T22:36:08.386Z,97722.93
2017-10-23T22:38:35.427Z,97722.39
2017-10-23T22:41:01.862Z,97728.52
2017-10-23T22:43:28.306Z,97731.66
2017-10-23T22:45:54.740Z,97736.84
2017-10-23T22:48:21.166Z,97746.01
2017-10-23T22:50:47.609Z,97742.62
2017-10-23T22:53:14.037Z,97744.45
2017-10-23T22:55:41.277Z,97760.23
2017-10-23T22:58:07.837Z,97757.30
2017-10-23T23:00:34.262Z,97751.42
2017-10-23T23:03:00.698Z,97755.59
2017-10-23T23:05:27.140Z,97758.77
2017-10-23T23:07:53.504Z,97764.94
2017-10-23T23:10:19.901Z,97765.27
2017-10-23T23:12:47.152Z,97770.55
2017-10-23T23:15:13.596Z,97778.77
2017-10-23T23:17:40.022Z,97784.14
2017-10-23T23:20:06.457Z,97779.08
2017-10-23T23:22:32.892Z,97777.69
2017-10-23T23:24:59.335Z,97771.19
2017-10-23T23:27:25.761Z,97761.28
2017-10-23T23:29:53.016Z,97754.19
2017-10-23T23:32:19.451Z,97761.38
2017-10-23T23:34:45.885Z,97770.37
2017-10-23T23:37:12.327Z,97767.61
2017-10-23T23:39:38.728Z,97771.37
2017-10-23T23:42:05.190Z,97771.98
2017-10-23T23:44:31.624Z,97760.89
2017-10-23T23:46:58.878Z,97756.48
2017-10-23T23:49:25.313Z,97754.14
2017-10-23T23:51:51.749Z,97756.25
2017-10-23T23:54:18.182Z,97747.86
2017-10-23T23:56:44.622Z,97750.23
2017-10-23T23:59:11.052Z,97748.99
